Time;durP1;ratioP1;P1;durP2;ratioP2;P2;SDS_P1;SDS_P2;PMS_P1;PMS_P2;Temp;Humidity;BMP_temperature;BMP_pressure;BME280_temperature;BME280_humidity;BME280_pressure;Samples;Min_cycle;Max_cycle;Signal;HPM_P1;HPM_P2
2021/10/06 00:00:40;;;;;;;5.28;1.55;;;;;;;9.75;88.90;100706.00;5096284;28;20035;-74
2021/10/06 00:03:05;;;;;;;13.38;1.85;;;;;;;9.75;89.11;100684.75;5096095;28;20030;-75
2021/10/06 00:05:30;;;;;;;11.95;2.15;;;;;;;9.70;89.63;100690.47;5096233;28;20036;-74
2021/10/06 00:07:56;;;;;;;10.00;1.73;;;;;;;9.65;90.96;100686.56;5095466;28;20024;-75
2021/10/06 00:10:21;;;;;;;9.48;1.73;;;;;;;9.59;91.45;100708.34;5096173;28;20028;-75
2021/10/06 00:12:47;;;;;;;10.52;2.00;;;;;;;9.53;92.46;100715.88;5095386;28;20032;-74
2021/10/06 00:15:12;;;;;;;24.98;2.67;;;;;;;9.45;93.47;100714.84;5096025;28;20077;-75
2021/10/06 00:17:39;;;;;;;7.15;1.70;;;;;;;9.35;93.60;100705.03;5095992;28;20523;-76
2021/10/06 00:20:06;;;;;;;8.93;2.17;;;;;;;9.30;95.40;100717.03;5095154;28;20071;-76
2021/10/06 00:22:31;;;;;;;10.18;2.42;;;;;;;9.21;96.31;100707.22;5095922;28;20031;-75
2021/10/06 00:24:57;;;;;;;10.57;1.88;;;;;;;9.19;95.40;100702.06;5095127;28;20028;-74
2021/10/06 00:27:22;;;;;;;10.52;1.48;;;;;;;9.22;92.98;100701.78;5095721;28;20024;-75
2021/10/06 00:29:47;;;;;;;10.30;1.58;;;;;;;9.18;94.82;100705.66;5095107;28;20080;-75
2021/10/06 00:32:13;;;;;;;9.65;1.65;;;;;;;9.20;93.86;100713.53;5095605;28;20352;-75
2021/10/06 00:34:38;;;;;;;7.07;1.98;;;;;;;9.31;91.68;100721.38;5095285;28;20028;-74
2021/10/06 00:37:04;;;;;;;7.32;1.58;;;;;;;9.27;92.39;100718.16;5094856;28;20039;-74
2021/10/06 00:39:29;;;;;;;12.05;2.15;;;;;;;9.22;92.67;100716.88;5095517;28;20024;-74
2021/10/06 00:41:55;;;;;;;9.82;1.80;;;;;;;9.21;91.14;100725.81;5094269;28;20166;-74
2021/10/06 00:44:21;;;;;;;11.35;1.90;;;;;;;9.15;92.27;100720.06;5095452;28;20373;-73
2021/10/06 00:46:48;;;;;;;7.78;1.30;;;;;;;9.14;91.63;100722.88;5094828;28;20056;-75
2021/10/06 00:49:15;;;;;;;9.77;1.55;;;;;;;9.15;92.05;100733.34;5095446;28;20028;-73
2021/10/06 00:51:40;;;;;;;9.93;1.98;;;;;;;9.15;93.10;100738.66;5095373;28;20035;-74
2021/10/06 00:54:06;;;;;;;6.55;1.30;;;;;;;9.12;93.17;100743.38;5094643;28;20540;-74
2021/10/06 00:56:32;;;;;;;11.00;1.70;;;;;;;9.10;93.43;100759.44;5094897;28;20035;-74
2021/10/06 00:58:57;;;;;;;10.38;1.58;;;;;;;9.10;93.54;100743.50;5094470;28;20028;-75
2021/10/06 01:01:23;;;;;;;13.23;1.77;;;;;;;9.06;93.99;100754.50;5094685;28;20444;-74
2021/10/06 01:03:49;;;;;;;11.15;1.65;;;;;;;9.06;93.11;100755.38;5094410;28;20103;-74
2021/10/06 01:06:15;;;;;;;9.43;1.60;;;;;;;9.08;92.78;100755.25;5094979;28;20436;-74
2021/10/06 01:08:41;;;;;;;7.28;1.70;;;;;;;9.09;92.49;100751.59;5094700;28;20020;-75
2021/10/06 01:11:08;;;;;;;10.75;1.92;;;;;;;9.03;92.92;100755.59;5094327;28;20531;-75
2021/10/06 01:13:33;;;;;;;6.40;1.60;;;;;;;9.02;93.01;100753.09;5094943;28;20028;-75
2021/10/06 01:15:59;;;;;;;9.70;1.50;;;;;;;9.01;93.35;100762.88;5094149;28;20444;-75
2021/10/06 01:18:24;;;;;;;9.00;1.50;;;;;;;8.94;94.81;100767.00;5076561;28;20036;-75
2021/10/06 01:20:50;;;;;;;9.48;1.67;;;;;;;8.87;95.81;100764.06;5093929;28;20111;-80
2021/10/06 01:23:15;;;;;;;9.05;1.70;;;;;;;8.78;96.80;100757.72;5094823;28;20114;-76
2021/10/06 01:25:41;;;;;;;7.30;1.30;;;;;;;8.73;97.26;100753.75;5094207;28;20389;-77
2021/10/06 01:28:06;;;;;;;6.82;1.52;;;;;;;8.70;97.71;100764.63;5094199;28;20364;-77
2021/10/06 01:30:32;;;;;;;9.90;1.90;;;;;;;8.70;97.79;100765.47;5094568;28;20083;-77
2021/10/06 01:32:58;;;;;;;11.60;1.63;;;;;;;8.69;97.93;100757.63;5093772;28;20062;-78
2021/10/06 01:35:23;;;;;;;7.85;1.40;;;;;;;8.70;98.35;100757.50;5094383;28;20367;-77
2021/10/06 01:37:49;;;;;;;10.60;1.52;;;;;;;8.71;98.20;100753.88;5076096;28;20027;-76
2021/10/06 01:40:22;;;;;;;15.25;1.80;;;;;;;8.72;98.28;100760.03;5093580;28;20369;-75
2021/10/06 01:42:49;;;;;;;7.63;1.38;;;;;;;8.74;98.07;100748.31;5094089;28;20020;-76
2021/10/06 01:45:21;;;;;;;12.18;2.70;;;;;;;8.78;97.91;100751.56;5093578;28;20036;-77
2021/10/06 01:47:46;;;;;;;14.65;1.83;;;;;;;8.83;97.34;100749.34;5094653;28;20016;-76
2021/10/06 01:50:21;;;;;;;12.30;1.85;;;;;;;8.88;95.68;100754.28;5093288;28;20416;-76
2021/10/06 01:52:46;;;;;;;9.70;1.25;;;;;;;8.89;96.01;100762.09;5094199;28;20058;-76
2021/10/06 01:55:12;;;;;;;16.38;1.40;;;;;;;8.89;96.01;100764.75;5093400;28;20051;-76
2021/10/06 01:57:37;;;;;;;8.25;1.55;;;;;;;8.90;95.19;100749.69;5094002;28;20024;-76
2021/10/06 02:00:04;;;;;;;6.57;1.00;;;;;;;8.88;94.81;100763.06;5093067;28;20074;-76
2021/10/06 02:02:29;;;;;;;6.70;1.40;;;;;;;8.83;95.43;100759.97;5094088;28;20032;-77
2021/10/06 02:04:55;;;;;;;8.73;1.13;;;;;;;8.78;96.08;100760.38;5093854;28;20024;-76
2021/10/06 02:07:20;;;;;;;10.50;1.42;;;;;;;8.72;96.68;100752.06;5093594;28;20020;-77
2021/10/06 02:09:46;;;;;;;15.70;1.80;;;;;;;8.68;97.53;100759.44;5093508;28;20110;-77
2021/10/06 02:12:11;;;;;;;11.38;1.25;;;;;;;8.66;98.24;100758.75;5093133;28;20474;-76
2021/10/06 02:14:36;;;;;;;13.57;1.80;;;;;;;8.64;97.42;100758.88;5093724;28;20430;-80
2021/10/06 02:17:02;;;;;;;7.72;1.13;;;;;;;8.64;97.28;100750.06;5075118;28;20024;-77
2021/10/06 02:19:28;;;;;;;8.18;1.63;;;;;;;8.63;97.28;100762.50;5092703;28;20072;-78
2021/10/06 02:21:53;;;;;;;11.82;2.03;;;;;;;8.62;97.31;100747.53;5093397;28;20476;-76
2021/10/06 02:24:19;;;;;;;9.35;1.17;;;;;;;8.63;96.40;100751.06;5092864;28;20035;-77
2021/10/06 02:26:44;;;;;;;13.52;1.48;;;;;;;8.62;97.04;100752.00;5093418;28;20073;-77
2021/10/06 02:29:09;;;;;;;12.18;1.67;;;;;;;8.58;97.72;100761.19;5057923;28;20081;-78
2021/10/06 02:31:35;;;;;;;14.57;2.00;;;;;;;8.55;98.13;100770.22;5093131;28;20032;-76
2021/10/06 02:34:00;;;;;;;12.82;1.88;;;;;;;8.59;98.06;100761.06;5092703;28;20028;-76
2021/10/06 02:36:26;;;;;;;17.77;2.05;;;;;;;8.58;98.74;100763.84;5093321;28;20028;-74
2021/10/06 02:38:51;;;;;;;16.30;2.15;;;;;;;8.58;98.23;100767.34;5093294;28;20040;-76
2021/10/06 02:41:17;;;;;;;20.00;2.30;;;;;;;8.57;98.22;100760.34;5092831;28;20115;-76
2021/10/06 02:43:42;;;;;;;11.68;1.60;;;;;;;8.56;98.25;100774.56;5093380;28;20039;-75
2021/10/06 02:46:07;;;;;;;13.85;1.50;;;;;;;8.55;98.68;100783.50;5092950;28;20062;-76
2021/10/06 02:48:33;;;;;;;15.05;2.08;;;;;;;8.53;98.92;100772.19;5094328;28;20027;-76
2021/10/06 02:50:58;;;;;;;10.15;1.40;;;;;;;8.49;98.76;100772.56;5094709;28;20337;-77
2021/10/06 02:53:23;;;;;;;10.25;1.48;;;;;;;8.41;97.56;100765.22;5075046;28;20039;-75
2021/10/06 02:55:49;;;;;;;18.85;2.35;;;;;;;8.33;97.92;100771.16;5074966;28;20069;-76
2021/10/06 02:58:14;;;;;;;17.73;1.58;;;;;;;8.25;97.84;100770.94;5092620;28;20036;-77
2021/10/06 03:00:40;;;;;;;17.17;2.20;;;;;;;8.18;98.41;100767.97;5093069;28;20026;-75
2021/10/06 03:03:05;;;;;;;18.35;1.73;;;;;;;8.14;98.94;100765.69;5074163;28;20107;-76
2021/10/06 03:05:31;;;;;;;16.85;1.80;;;;;;;8.12;99.37;100764.00;5092642;28;20028;-75
2021/10/06 03:07:56;;;;;;;18.60;1.85;;;;;;;8.12;100.00;100753.38;5092961;28;20027;-76
2021/10/06 03:10:21;;;;;;;14.80;2.00;;;;;;;8.11;100.00;100751.69;5092058;28;20263;-75
2021/10/06 03:12:47;;;;;;;16.77;1.80;;;;;;;8.18;100.00;100756.50;5092498;28;20031;-77
2021/10/06 03:15:12;;;;;;;12.63;1.75;;;;;;;8.18;100.00;100749.41;5092048;28;20449;-76
2021/10/06 03:17:38;;;;;;;9.38;1.00;;;;;;;8.19;100.00;100739.63;5092750;28;20137;-76
2021/10/06 03:20:09;;;;;;;13.43;1.42;;;;;;;8.17;100.00;100741.56;5092307;28;20048;-79
2021/10/06 03:22:35;;;;;;;15.48;1.77;;;;;;;8.17;100.00;100739.75;5092536;28;20448;-76
2021/10/06 03:25:01;;;;;;;7.80;1.40;;;;;;;8.18;100.00;100745.88;5092757;28;20032;-77
2021/10/06 03:27:27;;;;;;;15.65;1.70;;;;;;;8.19;100.00;100736.97;5092169;28;20363;-77
2021/10/06 03:29:52;;;;;;;11.98;2.17;;;;;;;8.21;100.00;100740.34;5092997;28;20032;-76
2021/10/06 03:32:18;;;;;;;16.02;1.42;;;;;;;8.22;100.00;100740.22;5078211;28;20032;-77
2021/10/06 03:34:43;;;;;;;11.13;1.45;;;;;;;8.22;100.00;100737.56;5096651;28;20119;-77
2021/10/06 03:37:08;;;;;;;17.20;1.98;;;;;;;8.23;100.00;100730.47;5095656;28;20245;-76
2021/10/06 03:39:34;;;;;;;14.20;1.73;;;;;;;8.26;100.00;100743.47;5096202;28;20039;-76
2021/10/06 03:42:00;;;;;;;19.02;2.25;;;;;;;8.29;100.00;100740.56;5096171;28;20036;-77
2021/10/06 03:44:25;;;;;;;22.15;1.52;;;;;;;8.32;100.00;100742.97;5077472;28;20032;-77
2021/10/06 03:46:50;;;;;;;14.30;1.80;;;;;;;8.38;100.00;100734.50;5096596;28;20035;-75
2021/10/06 03:49:16;;;;;;;15.93;2.20;;;;;;;8.41;100.00;100725.44;5095918;28;20035;-75
2021/10/06 03:51:41;;;;;;;11.63;2.05;;;;;;;8.44;100.00;100722.56;5096779;28;20118;-76
2021/10/06 03:54:06;;;;;;;16.77;2.25;;;;;;;8.47;100.00;100720.50;5096437;28;20521;-74
2021/10/06 03:56:32;;;;;;;22.27;2.45;;;;;;;8.57;100.00;100725.88;5077584;28;20034;-75
2021/10/06 03:58:57;;;;;;;18.60;2.55;;;;;;;8.63;100.00;100740.44;5096235;28;20032;-75
2021/10/06 04:01:23;;;;;;;20.08;2.80;;;;;;;8.68;100.00;100721.47;5095225;28;20052;-76
2021/10/06 04:03:48;;;;;;;18.75;2.20;;;;;;;8.76;100.00;100727.81;5095970;28;20461;-76
2021/10/06 04:06:13;;;;;;;20.27;2.75;;;;;;;8.83;100.00;100720.19;5095294;28;20379;-76
2021/10/06 04:08:39;;;;;;;18.60;2.30;;;;;;;8.92;100.00;100705.28;5078073;28;20077;-75
2021/10/06 04:11:04;;;;;;;23.88;2.60;;;;;;;9.01;100.00;100715.09;5077828;28;20366;-76
2021/10/06 04:13:29;;;;;;;14.60;3.45;;;;;;;9.10;100.00;100718.78;5095034;28;20028;-75
2021/10/06 04:15:55;;;;;;;18.00;2.45;;;;;;;9.15;100.00;100720.06;5095926;28;20059;-75
2021/10/06 04:18:20;;;;;;;23.70;2.55;;;;;;;9.20;100.00;100719.66;5095029;28;20099;-75
2021/10/06 04:20:45;;;;;;;17.98;2.13;;;;;;;9.23;100.00;100721.22;5095303;28;20051;-75
2021/10/06 04:23:12;;;;;;;11.88;1.95;;;;;;;9.26;100.00;100713.81;5077024;28;20028;-75
2021/10/06 04:25:37;;;;;;;18.88;2.47;;;;;;;9.30;100.00;100714.38;5077326;28;20020;-75
2021/10/06 04:28:03;;;;;;;15.95;2.25;;;;;;;9.31;100.00;100719.56;5095755;28;20031;-75
2021/10/06 04:30:28;;;;;;;25.73;2.33;;;;;;;9.37;100.00;100727.97;5095054;28;20051;-74
2021/10/06 04:32:54;;;;;;;24.70;2.88;;;;;;;9.38;100.00;100716.41;5095222;28;20036;-75
2021/10/06 04:35:19;;;;;;;22.10;3.03;;;;;;;9.41;100.00;100714.31;5095018;28;20380;-77
2021/10/06 04:37:45;;;;;;;18.42;2.45;;;;;;;9.43;100.00;100722.13;5077458;28;20063;-76
2021/10/06 04:40:10;;;;;;;33.15;3.63;;;;;;;9.43;100.00;100720.31;5095410;28;20036;-73
2021/10/06 04:42:36;;;;;;;15.48;2.17;;;;;;;9.46;100.00;100717.38;5093817;28;20413;-73
2021/10/06 04:45:02;;;;;;;17.10;2.08;;;;;;;9.53;100.00;100720.34;5077327;28;20028;-73
2021/10/06 04:47:27;;;;;;;21.38;2.25;;;;;;;9.57;100.00;100720.91;5076477;28;20016;-73
2021/10/06 04:49:53;;;;;;;23.38;3.13;;;;;;;9.61;100.00;100739.09;5095267;28;20470;-72
2021/10/06 04:52:18;;;;;;;16.13;2.22;;;;;;;9.67;100.00;100743.03;5094610;28;20028;-73
2021/10/06 04:54:43;;;;;;;21.85;2.65;;;;;;;9.67;100.00;100743.03;5076946;28;20034;-76
2021/10/06 04:57:09;;;;;;;14.65;2.83;;;;;;;9.70;100.00;100748.06;5096377;28;20085;-74
2021/10/06 04:59:34;;;;;;;19.55;2.53;;;;;;;9.70;100.00;100748.06;5077288;28;20037;-75
2021/10/06 05:02:00;;;;;;;19.75;2.83;;;;;;;9.75;99.98;100745.00;5071926;28;20067;-77
2021/10/06 05:04:26;;;;;;;16.90;2.47;;;;;;;9.81;99.20;100750.63;5071561;28;20055;-77
2021/10/06 05:06:52;;;;;;;15.07;2.50;;;;;;;9.87;99.14;100758.06;5072262;28;20090;-77
2021/10/06 05:09:18;;;;;;;20.85;3.33;;;;;;;9.89;98.26;100766.72;5071197;28;20029;-77
2021/10/06 05:11:44;;;;;;;22.83;2.80;;;;;;;9.88;98.14;100777.47;5071719;28;20039;-76
2021/10/06 05:14:09;;;;;;;11.25;2.90;;;;;;;9.87;97.64;100783.81;5072181;28;20039;-78
2021/10/06 05:16:34;;;;;;;13.27;2.80;;;;;;;9.84;97.57;100800.03;5071698;28;20024;-77
2021/10/06 05:19:00;;;;;;;23.02;3.22;;;;;;;9.78;98.51;100790.75;5074481;28;20131;-76
2021/10/06 05:21:25;;;;;;;16.65;2.55;;;;;;;9.74;99.02;100785.84;5071209;28;20029;-78
2021/10/06 05:23:50;;;;;;;14.15;2.60;;;;;;;9.71;98.97;100789.63;5072356;28;20040;-75
2021/10/06 05:26:16;;;;;;;23.67;2.50;;;;;;;9.75;98.19;100787.50;5071591;28;20037;-76
2021/10/06 05:28:41;;;;;;;16.77;2.60;;;;;;;9.77;98.32;100796.22;5052951;28;20443;-74
2021/10/06 05:31:07;;;;;;;20.45;2.72;;;;;;;9.77;98.12;100796.22;5071514;28;20033;-76
2021/10/06 05:33:32;;;;;;;16.00;3.08;;;;;;;9.81;97.80;100802.94;5070678;28;20115;-74
2021/10/06 05:35:58;;;;;;;21.75;3.63;;;;;;;9.80;98.12;100803.91;5071291;28;20511;-75
2021/10/06 05:38:23;;;;;;;20.05;2.63;;;;;;;9.80;98.05;100802.09;5070801;28;20052;-75
2021/10/06 05:40:49;;;;;;;19.05;2.83;;;;;;;9.87;97.10;100803.22;5071361;28;20111;-75
2021/10/06 05:43:14;;;;;;;15.75;2.38;;;;;;;9.87;97.52;100805.06;5071341;28;20432;-75
2021/10/06 05:45:40;;;;;;;19.80;2.78;;;;;;;9.86;97.47;100812.16;5070175;28;20205;-75
2021/10/06 05:48:07;;;;;;;13.43;2.20;;;;;;;9.85;97.84;100810.50;5053289;28;20037;-74
2021/10/06 05:50:33;;;;;;;16.10;2.85;;;;;;;9.86;97.66;100811.34;5069070;28;20386;-76
2021/10/06 05:53:00;;;;;;;16.23;2.17;;;;;;;9.88;97.33;100812.91;5070772;28;20119;-74
2021/10/06 05:55:25;;;;;;;11.45;2.22;;;;;;;9.92;96.31;100824.09;5069022;28;20032;-77
2021/10/06 05:57:51;;;;;;;20.75;2.33;;;;;;;9.90;97.03;100826.06;5070649;28;20037;-76
2021/10/06 06:00:16;;;;;;;11.75;1.92;;;;;;;9.88;96.36;100831.50;5070723;28;20032;-74
2021/10/06 06:02:46;;;;;;;18.98;2.25;;;;;;;9.91;97.15;100832.19;5070609;28;20204;-75
2021/10/06 06:05:16;;;;;;;16.30;2.13;;;;;;;9.89;97.55;100842.97;5073306;28;20481;-75
2021/10/06 06:07:42;;;;;;;11.07;1.92;;;;;;;9.86;98.46;100856.53;5070304;28;20028;-75
2021/10/06 06:10:08;;;;;;;16.15;2.28;;;;;;;9.81;98.59;100861.41;5070339;28;20054;-73
2021/10/06 06:12:34;;;;;;;16.65;2.58;;;;;;;9.79;99.12;100850.91;5069958;28;20035;-75
2021/10/06 06:14:59;;;;;;;18.65;2.60;;;;;;;9.80;99.47;100849.09;5070586;28;20115;-72
2021/10/06 06:17:25;;;;;;;17.23;2.53;;;;;;;9.76;99.26;100859.13;5070078;28;20052;-77
2021/10/06 06:19:50;;;;;;;26.58;4.15;;;;;;;9.73;99.30;100847.94;5070136;28;20040;-73
2021/10/06 06:22:15;;;;;;;16.23;2.35;;;;;;;9.73;99.88;100863.88;5070098;28;20040;-75
2021/10/06 06:24:41;;;;;;;14.70;2.65;;;;;;;9.71;99.60;100871.97;5069917;28;20029;-74
2021/10/06 06:27:07;;;;;;;16.75;2.20;;;;;;;9.74;99.78;100865.56;5070197;28;20043;-72
2021/10/06 06:29:33;;;;;;;13.73;2.13;;;;;;;9.73;100.00;100866.53;5069914;28;20441;-75
2021/10/06 06:31:59;;;;;;;15.60;1.90;;;;;;;9.76;100.00;100863.59;5052577;28;20082;-74
2021/10/06 06:34:24;;;;;;;16.67;2.38;;;;;;;9.80;99.85;100876.50;5069911;28;20376;-73
2021/10/06 06:36:50;;;;;;;16.30;2.50;;;;;;;9.86;99.87;100885.75;5069608;28;20028;-75
2021/10/06 06:39:15;;;;;;;11.27;1.98;;;;;;;9.92;99.65;100876.41;5070266;28;20082;-73
2021/10/06 06:41:41;;;;;;;14.30;2.58;;;;;;;10.04;99.10;100878.00;5069628;28;20832;-74
2021/10/06 06:44:06;;;;;;;14.43;2.22;;;;;;;10.11;99.06;100884.44;5070273;28;20036;-76
2021/10/06 06:46:32;;;;;;;23.45;3.40;;;;;;;10.12;99.12;100896.78;5069127;28;20122;-74
2021/10/06 06:48:57;;;;;;;19.83;3.40;;;;;;;10.12;98.95;100890.59;5070226;28;20360;-73
2021/10/06 06:51:23;;;;;;;16.73;2.20;;;;;;;10.09;99.50;100902.38;5070323;28;20456;-74
2021/10/06 06:53:49;;;;;;;15.43;2.60;;;;;;;10.10;99.53;100901.38;5072282;28;20325;-73
2021/10/06 06:56:15;;;;;;;16.95;2.60;;;;;;;10.10;100.00;100908.50;5073970;28;20448;-75
2021/10/06 06:58:40;;;;;;;13.77;2.40;;;;;;;10.07;99.75;100910.44;5071044;28;20452;-77
2021/10/06 07:01:05;;;;;;;19.38;2.58;;;;;;;10.05;100.00;100904.44;5070282;28;20041;-76
2021/10/06 07:03:31;;;;;;;12.95;2.58;;;;;;;10.02;100.00;100920.66;5051620;28;20033;-80
2021/10/06 07:05:56;;;;;;;31.85;3.65;;;;;;;10.00;100.00;100919.97;5051469;28;20449;-77
2021/10/06 07:08:22;;;;;;;23.92;3.28;;;;;;;9.99;100.00;100917.44;5069988;28;20044;-78
2021/10/06 07:10:47;;;;;;;13.60;2.40;;;;;;;9.92;100.00;100940.19;5068901;28;20033;-80
2021/10/06 07:13:12;;;;;;;9.90;2.25;;;;;;;9.74;99.59;100962.06;5068661;28;20048;-78
2021/10/06 07:15:38;;;;;;;30.23;2.10;;;;;;;9.57;99.72;100971.47;5068042;28;20078;-77
2021/10/06 07:18:03;;;;;;;12.35;1.77;;;;;;;9.40;100.00;100975.50;5070000;28;20028;-76
2021/10/06 07:20:29;;;;;;;7.68;1.85;;;;;;;9.21;100.00;100972.72;5069294;28;20068;-78
2021/10/06 07:22:54;;;;;;;19.42;1.88;;;;;;;9.08;100.00;100970.25;5068728;28;20029;-76
2021/10/06 07:25:19;;;;;;;7.35;1.60;;;;;;;8.94;100.00;100980.19;5051720;28;20043;-75
2021/10/06 07:27:45;;;;;;;13.98;2.50;;;;;;;8.89;100.00;100962.94;5051240;28;20033;-78
2021/10/06 07:30:11;;;;;;;21.85;3.72;;;;;;;9.09;100.00;100966.59;5069782;28;20368;-75
2021/10/06 07:32:38;;;;;;;25.83;3.72;;;;;;;9.35;100.00;100967.09;5069349;28;20040;-77
2021/10/06 07:35:04;;;;;;;35.25;4.35;;;;;;;9.58;100.00;100959.00;5069365;28;20028;-78
2021/10/06 07:37:30;;;;;;;28.30;4.13;;;;;;;9.71;100.00;100968.47;5069541;28;20078;-77
2021/10/06 07:39:55;;;;;;;33.67;4.35;;;;;;;9.85;100.00;100967.31;5068575;28;20029;-75
2021/10/06 07:42:20;;;;;;;33.10;4.50;;;;;;;9.96;100.00;100969.03;5069663;28;20111;-76
2021/10/06 07:44:47;;;;;;;33.80;5.45;;;;;;;10.04;100.00;100986.97;5069274;28;20028;-76
2021/10/06 07:47:13;;;;;;;29.55;3.78;;;;;;;10.08;100.00;100985.75;5068045;28;20111;-78
2021/10/06 07:49:40;;;;;;;36.15;4.13;;;;;;;10.06;100.00;100963.75;5068860;28;20025;-74
2021/10/06 07:52:05;;;;;;;34.42;3.88;;;;;;;10.06;100.00;100947.81;5069451;28;20033;-78
2021/10/06 07:54:31;;;;;;;25.83;3.40;;;;;;;10.10;100.00;100959.84;5069462;28;20118;-78
2021/10/06 07:56:56;;;;;;;21.90;3.38;;;;;;;10.13;100.00;100959.59;5068762;28;20032;-74
2021/10/06 07:59:22;;;;;;;23.80;3.80;;;;;;;10.16;100.00;100954.00;5069137;28;20043;-74
2021/10/06 08:01:47;;;;;;;21.95;3.38;;;;;;;10.21;100.00;100973.06;5068627;28;20028;-74
2021/10/06 08:04:12;;;;;;;15.95;3.00;;;;;;;10.23;100.00;100973.78;5069036;28;20055;-74
2021/10/06 08:06:38;;;;;;;16.05;2.92;;;;;;;10.20;100.00;100975.88;5068688;28;20064;-77
2021/10/06 08:09:05;;;;;;;17.20;2.85;;;;;;;10.17;100.00;100978.81;5069579;28;20031;-71
2021/10/06 08:11:31;;;;;;;21.38;3.30;;;;;;;10.13;100.00;100990.66;5067594;28;20376;-76
2021/10/06 08:13:57;;;;;;;27.38;3.53;;;;;;;10.11;100.00;100996.13;5068947;28;20024;-77
2021/10/06 08:16:22;;;;;;;26.95;4.18;;;;;;;10.17;100.00;101000.06;5069294;28;20038;-80
2021/10/06 08:18:48;;;;;;;39.67;4.88;;;;;;;10.28;100.00;101005.28;5071522;28;20035;-78
2021/10/06 08:21:13;;;;;;;32.83;4.80;;;;;;;10.37;100.00;101009.00;5072916;28;20107;-77
2021/10/06 08:23:39;;;;;;;29.52;4.53;;;;;;;10.44;100.00;101025.28;5071637;28;20064;-76
2021/10/06 08:26:04;;;;;;;29.63;4.05;;;;;;;10.50;100.00;101032.72;5072329;28;20033;-75
2021/10/06 08:28:30;;;;;;;27.27;3.92;;;;;;;10.54;100.00;101036.81;5072651;28;20078;-76
2021/10/06 08:30:55;;;;;;;24.88;3.83;;;;;;;10.53;100.00;101035.13;5072013;28;20375;-77
2021/10/06 08:33:21;;;;;;;33.08;4.30;;;;;;;10.55;100.00;101038.47;5072649;28;20036;-76
2021/10/06 08:35:46;;;;;;;34.17;4.72;;;;;;;10.56;100.00;101043.66;5071687;28;20067;-77
2021/10/06 08:38:12;;;;;;;27.05;4.88;;;;;;;10.60;100.00;101054.91;5080812;28;20460;-78
2021/10/06 08:40:38;;;;;;;29.50;3.90;;;;;;;10.66;100.00;101064.13;5092038;28;20032;-77
2021/10/06 08:43:06;;;;;;;31.00;4.95;;;;;;;10.72;100.00;101064.44;5094292;28;20059;-74
2021/10/06 08:45:32;;;;;;;33.90;4.10;;;;;;;10.84;100.00;101067.84;5095123;28;20028;-79
2021/10/06 08:48:00;;;;;;;38.45;4.15;;;;;;;10.99;100.00;101076.31;5094413;28;20024;-76
2021/10/06 08:50:25;;;;;;;34.55;5.00;;;;;;;11.14;100.00;101086.56;5095475;28;20023;-76
2021/10/06 08:52:51;;;;;;;27.33;3.75;;;;;;;11.24;100.00;101088.28;5094368;28;20032;-82
2021/10/06 08:55:19;;;;;;;37.88;4.72;;;;;;;11.20;100.00;101102.84;5095110;28;20027;-75
2021/10/06 08:57:45;;;;;;;33.47;4.10;;;;;;;11.13;100.00;101095.53;5094527;28;20089;-76
2021/10/06 09:00:11;;;;;;;39.85;4.85;;;;;;;11.09;100.00;101109.13;5094842;28;20024;-75
2021/10/06 09:02:38;;;;;;;28.73;4.10;;;;;;;11.08;100.00;101123.41;5095026;28;20043;-74
2021/10/06 09:05:05;;;;;;;26.42;2.60;;;;;;;11.19;100.00;101124.28;5094392;28;20086;-74
2021/10/06 09:07:30;;;;;;;30.50;3.92;;;;;;;12.05;97.37;101137.06;5095015;28;20035;-74
2021/10/06 09:09:56;;;;;;;24.45;3.22;;;;;;;12.84;92.14;101141.22;5093876;28;20468;-76
2021/10/06 09:12:23;;;;;;;19.35;2.75;;;;;;;13.60;87.13;101145.50;5094454;28;20036;-75
2021/10/06 09:14:49;;;;;;;20.77;2.45;;;;;;;14.40;82.63;101142.81;5094248;28;20103;-72
2021/10/06 09:17:19;;;;;;;17.05;2.35;;;;;;;15.40;78.72;101144.16;5094519;28;20546;-76
2021/10/06 09:19:53;;;;;;;19.07;2.97;;;;;;;15.40;78.72;101147.69;5093954;28;20051;-75
2021/10/06 09:22:31;;;;;;;22.50;2.13;;;;;;;14.28;82.53;101154.78;5094528;28;20456;-74
2021/10/06 09:24:58;;;;;;;10.95;1.92;;;;;;;13.88;85.23;101165.00;5094125;28;20016;-71
2021/10/06 09:27:34;;;;;;;16.88;1.73;;;;;;;13.43;86.21;101179.19;5094596;28;20443;-72
2021/10/06 09:30:05;;;;;;;15.32;2.10;;;;;;;13.38;86.27;101181.50;5093719;28;20367;-72
2021/10/06 09:32:34;;;;;;;16.80;2.13;;;;;;;13.96;85.72;101184.75;5094491;28;20077;-72
2021/10/06 09:35:04;;;;;;;17.58;2.67;;;;;;;15.18;81.19;101189.31;5093682;28;20107;-73
2021/10/06 09:37:30;;;;;;;22.90;2.83;;;;;;;16.12;75.22;101195.47;5094699;28;20020;-73
2021/10/06 09:39:56;;;;;;;20.83;3.25;;;;;;;16.13;76.47;101190.94;5093417;28;20020;-73
2021/10/06 09:42:22;;;;;;;18.25;2.85;;;;;;;15.76;75.95;101198.38;5094146;28;20032;-73
2021/10/06 09:44:55;;;;;;;18.58;2.70;;;;;;;15.46;78.83;101197.13;5093680;28;20046;-75
2021/10/06 09:47:21;;;;;;;23.85;2.88;;;;;;;15.27;79.48;101206.28;5094061;28;20030;-74
2021/10/06 09:49:53;;;;;;;23.75;3.05;;;;;;;15.71;79.59;101206.09;5094231;28;20107;-73
2021/10/06 09:52:27;;;;;;;17.92;3.08;;;;;;;15.37;77.67;101206.16;5094088;28;20080;-74
2021/10/06 09:54:52;;;;;;;21.48;2.95;;;;;;;14.87;79.25;101215.78;5093362;28;20039;-73
2021/10/06 09:57:28;;;;;;;19.13;2.65;;;;;;;14.26;82.70;101221.00;5094024;28;20024;-72
2021/10/06 09:59:54;;;;;;;10.38;2.22;;;;;;;13.84;86.63;101232.28;5093045;28;20484;-73
2021/10/06 10:02:20;;;;;;;19.70;2.95;;;;;;;13.55;87.04;101244.00;5094038;28;20067;-73
2021/10/06 10:04:46;;;;;;;20.67;2.70;;;;;;;13.40;88.71;101257.88;5093960;28;20073;-80
2021/10/06 10:07:12;;;;;;;22.20;3.30;;;;;;;13.32;88.14;101244.34;5092895;28;20039;-79
2021/10/06 10:09:38;;;;;;;16.83;2.72;;;;;;;13.81;84.07;101252.16;5094204;28;20028;-77
2021/10/06 10:12:04;;;;;;;21.05;2.63;;;;;;;14.62;82.54;101250.44;5092747;28;20036;-78
2021/10/06 10:14:30;;;;;;;20.40;3.58;;;;;;;15.95;79.06;101263.53;5093650;28;20039;-76
2021/10/06 10:16:55;;;;;;;22.40;3.25;;;;;;;16.28;75.57;101277.84;5093017;28;20039;-77
2021/10/06 10:19:26;;;;;;;17.35;2.63;;;;;;;15.22;79.20;101300.56;5093539;28;20458;-76
2021/10/06 10:21:52;;;;;;;9.07;1.77;;;;;;;13.72;82.99;101283.31;5093700;28;20020;-74
2021/10/06 10:24:23;;;;;;;15.38;2.17;;;;;;;12.76;86.18;101291.44;5093298;28;20110;-77
2021/10/06 10:26:58;;;;;;;15.45;2.78;;;;;;;12.31;91.02;101300.03;5093419;28;20423;-75
2021/10/06 10:29:36;;;;;;;17.63;2.60;;;;;;;12.12;93.94;101293.72;5093413;28;20109;-75
2021/10/06 10:32:06;;;;;;;18.52;2.40;;;;;;;12.14;94.60;101293.56;5087587;28;20113;-75
2021/10/06 10:34:56;;;;;;;11.55;2.10;;;;;;;12.21;93.97;101304.50;5090516;28;20046;-76
2021/10/06 10:40:33;;;;;;;18.02;2.42;;;;;;;12.60;95.94;101309.88;5089051;28;20388;-77
2021/10/06 10:43:23;;;;;;;16.25;2.33;;;;;;;12.92;95.16;101322.09;5089646;28;20105;-78
2021/10/06 10:45:59;;;;;;;13.48;2.45;;;;;;;13.11;92.87;101330.06;5090247;28;20028;-76
2021/10/06 10:48:28;;;;;;;17.15;2.85;;;;;;;13.24;92.41;101335.09;5090426;28;20077;-76
2021/10/06 10:50:53;;;;;;;16.77;2.22;;;;;;;13.34;90.31;101329.75;5090423;28;20031;-76
2021/10/06 10:53:50;;;;;;;12.75;2.33;;;;;;;13.62;91.97;101344.03;5089682;28;20474;-79
2021/10/06 10:56:40;;;;;;;17.17;2.20;;;;;;;13.80;90.30;101351.28;5089813;28;20024;-78
2021/10/06 10:59:10;;;;;;;9.73;2.00;;;;;;;13.64;89.54;101363.41;5089616;28;20038;-76
2021/10/06 11:01:49;;;;;;;16.95;2.35;;;;;;;13.11;89.66;101364.81;5090228;28;20475;-78
2021/10/06 11:04:21;;;;;;;17.25;2.85;;;;;;;12.79;92.98;101370.44;5089681;28;20028;-78
2021/10/06 11:06:55;;;;;;;19.73;3.08;;;;;;;12.45;94.52;101374.34;5090017;28;20020;-76
2021/10/06 11:09:29;;;;;;;21.30;3.38;;;;;;;12.15;95.13;101381.47;5089639;28;20023;-76
2021/10/06 11:12:04;;;;;;;25.42;2.67;;;;;;;11.89;94.59;101377.53;5090816;28;20036;-75
2021/10/06 11:14:29;;;;;;;17.42;2.50;;;;;;;11.62;95.73;101393.13;5090118;28;20033;-75
2021/10/06 11:17:10;;;;;;;13.85;2.42;;;;;;;11.50;97.63;101383.53;5072049;28;20059;-73
2021/10/06 11:19:43;;;;;;;12.68;2.40;;;;;;;11.43;98.18;101385.03;5089437;28;20161;-76
2021/10/06 11:22:24;;;;;;;15.57;2.30;;;;;;;11.42;99.10;101388.66;5089624;28;20035;-74